createdAt,value
2018-07-16T00:00:14.183Z,33.72
2018-07-16T00:01:14.188Z,33.42
2018-07-16T00:02:14.211Z,33.80
2018-07-16T00:03:14.330Z,34.28
2018-07-16T00:04:14.236Z,34.67
2018-07-16T00:05:14.254Z,34.47
2018-07-16T00:06:14.269Z,35.05
2018-07-16T00:07:14.280Z,35.14
2018-07-16T00:08:14.386Z,34.86
2018-07-16T00:09:14.312Z,35.43
2018-07-16T00:10:14.327Z,35.43
2018-07-16T00:11:14.341Z,35.63
2018-07-16T00:12:14.353Z,35.43
2018-07-16T00:13:14.468Z,35.34
2018-07-16T00:14:14.384Z,35.43
2018-07-16T00:15:14.393Z,35.72
2018-07-16T00:16:14.411Z,35.63
2018-07-16T00:17:14.425Z,35.53
2018-07-16T00:21:14.482Z,35.43
2018-07-16T00:22:14.480Z,36.01
2018-07-16T00:23:14.507Z,36.20
2018-07-16T00:24:14.536Z,36.20
2018-07-16T00:25:14.532Z,36.11
2018-07-16T00:26:14.549Z,36.40
2018-07-16T00:27:14.563Z,36.20
2018-07-16T00:28:14.569Z,37.05
2018-07-16T00:29:14.592Z,36.95
2018-07-16T00:30:14.601Z,36.86
2018-07-16T00:31:14.725Z,37.34
2018-07-16T00:32:14.637Z,37.62
2018-07-16T00:33:14.642Z,37.53
2018-07-16T00:34:14.656Z,37.15
2018-07-16T00:35:14.678Z,36.93
2018-07-16T00:36:14.695Z,37.51
2018-07-16T00:37:14.705Z,38.09
2018-07-16T00:38:14.718Z,37.99
2018-07-16T00:39:14.727Z,39.04
2018-07-16T00:40:14.743Z,38.95
2018-07-16T00:41:14.753Z,39.43
2018-07-16T00:42:14.773Z,39.53
2018-07-16T00:43:14.768Z,39.62
2018-07-16T00:44:14.812Z,39.91
2018-07-16T00:45:14.811Z,39.14
2018-07-16T00:46:14.924Z,39.72
2018-07-16T00:47:14.824Z,39.12
2018-07-16T00:48:14.849Z,39.98
2018-07-16T00:49:14.866Z,40.08
2018-07-16T00:50:14.878Z,39.98
2018-07-16T00:51:15.048Z,39.89
2018-07-16T00:52:14.904Z,39.50
2018-07-16T00:53:14.917Z,40.84
2018-07-16T00:54:14.932Z,40.56
2018-07-16T00:55:14.952Z,40.75
2018-07-16T00:56:15.107Z,41.13
2018-07-16T00:57:14.975Z,40.75
2018-07-16T00:58:15.005Z,40.66
2018-07-16T00:59:14.996Z,40.64
2018-07-16T01:00:15.007Z,40.66
2018-07-16T01:01:15.176Z,40.64
2018-07-16T01:02:15.040Z,40.54
2018-07-16T01:03:15.058Z,41.21
2018-07-16T01:04:15.072Z,41.88
2018-07-16T01:05:15.074Z,41.78
2018-07-16T01:06:15.189Z,41.60
2018-07-16T01:07:15.102Z,42.07
2018-07-16T01:08:15.119Z,42.27
2018-07-16T01:09:15.132Z,42.84
2018-07-16T01:10:15.148Z,42.46
2018-07-16T01:11:15.302Z,42.46
2018-07-16T01:12:15.226Z,43.13
2018-07-16T01:13:15.183Z,42.94
2018-07-16T01:14:15.202Z,42.84
2018-07-16T01:15:15.211Z,43.32
2018-07-16T01:16:15.224Z,43.23
2018-07-16T01:17:15.386Z,43.32
2018-07-16T01:18:15.236Z,42.84
2018-07-16T01:19:15.261Z,42.36
2018-07-16T01:20:15.276Z,42.55
2018-07-16T01:21:15.291Z,43.13
2018-07-16T01:22:15.459Z,43.41
2018-07-16T01:23:15.318Z,43.60
2018-07-16T01:24:15.316Z,43.51
2018-07-16T01:25:15.344Z,43.51
2018-07-16T01:26:15.339Z,43.41
2018-07-16T01:27:15.517Z,43.97
2018-07-16T01:28:15.380Z,44.09
2018-07-16T01:29:15.395Z,43.87
2018-07-16T01:30:15.409Z,43.20
2018-07-16T01:31:15.422Z,42.94
2018-07-16T01:32:15.532Z,43.39
2018-07-16T01:33:15.444Z,43.30
2018-07-16T01:34:15.439Z,43.30
2018-07-16T01:35:15.468Z,43.68
2018-07-16T01:36:15.483Z,43.77
2018-07-16T01:37:15.602Z,43.59
2018-07-16T01:38:15.506Z,43.20
2018-07-16T01:39:15.521Z,43.77
2018-07-16T01:40:15.531Z,44.06
2018-07-16T01:41:15.535Z,43.68
2018-07-16T01:42:15.715Z,43.49
2018-07-16T01:43:15.571Z,43.30
2018-07-16T01:44:15.587Z,43.20
2018-07-16T01:45:15.586Z,43.59
2018-07-16T01:46:15.603Z,44.16
2018-07-16T01:47:15.758Z,44.06
2018-07-16T01:48:15.639Z,43.20
2018-07-16T01:49:15.650Z,42.91
2018-07-16T01:50:15.670Z,43.01
2018-07-16T01:51:15.671Z,44.83
2018-07-16T01:52:15.790Z,44.93
2018-07-16T01:53:15.747Z,44.73
2018-07-16T01:54:15.715Z,44.16
2018-07-16T01:55:15.728Z,43.77
2018-07-16T01:56:15.740Z,43.20
2018-07-16T01:57:15.902Z,43.49
2018-07-16T01:58:15.766Z,43.87
2018-07-16T01:59:15.776Z,44.73
2018-07-16T02:00:15.783Z,44.93
2018-07-16T02:01:15.804Z,44.83
2018-07-16T02:02:15.969Z,45.67
2018-07-16T02:03:15.824Z,45.50
2018-07-16T02:04:15.844Z,45.00
2018-07-16T02:05:15.850Z,44.52
2018-07-16T02:06:15.866Z,44.04
2018-07-16T02:07:15.982Z,45.00
2018-07-16T02:08:15.874Z,45.38
2018-07-16T02:09:15.904Z,46.05
2018-07-16T02:10:15.919Z,46.05
2018-07-16T02:11:15.923Z,46.25
2018-07-16T02:12:16.043Z,46.15
2018-07-16T02:13:15.956Z,46.44
2018-07-16T02:14:15.968Z,47.01
2018-07-16T02:15:15.965Z,46.82
2018-07-16T02:16:15.994Z,46.53
2018-07-16T02:17:16.150Z,46.53
2018-07-16T02:18:16.021Z,47.01
2018-07-16T02:19:16.080Z,46.91
2018-07-16T02:20:16.046Z,46.53
2018-07-16T02:21:16.054Z,46.05
2018-07-16T02:22:16.149Z,46.15
2018-07-16T02:23:16.080Z,45.96
2018-07-16T02:24:16.091Z,46.44
2018-07-16T02:25:16.104Z,46.62
2018-07-16T02:26:16.119Z,47.18
2018-07-16T02:27:16.226Z,46.89
2018-07-16T02:28:16.136Z,46.61
2018-07-16T02:29:16.140Z,46.41
2018-07-16T02:30:16.183Z,45.94
2018-07-16T02:31:16.164Z,46.31
2018-07-16T02:32:16.198Z,46.51
2018-07-16T02:33:16.306Z,47.47
2018-07-16T02:34:16.217Z,47.85
2018-07-16T02:35:16.237Z,47.75
2018-07-16T02:36:16.250Z,46.98
2018-07-16T02:37:16.252Z,47.66
2018-07-16T02:38:16.275Z,47.08
2018-07-16T02:39:16.278Z,46.41
2018-07-16T02:40:16.295Z,46.80
2018-07-16T02:41:16.309Z,46.89
2018-07-16T02:42:16.316Z,47.56
2018-07-16T02:43:16.481Z,47.75
2018-07-16T02:44:16.344Z,46.80
2018-07-16T02:45:16.339Z,47.75
2018-07-16T02:46:16.364Z,48.52
2018-07-16T02:47:16.379Z,48.71
2018-07-16T02:48:16.537Z,48.71
2018-07-16T02:49:16.399Z,48.90
2018-07-16T02:50:16.417Z,48.90
2018-07-16T02:51:16.425Z,49.00
2018-07-16T02:52:16.440Z,49.09
2018-07-16T02:53:16.550Z,49.19
2018-07-16T02:54:16.466Z,48.52
2018-07-16T02:55:16.473Z,48.42
2018-07-16T02:56:16.496Z,47.56
2018-07-16T02:57:16.499Z,47.18
2018-07-16T02:58:16.615Z,47.08
2018-07-16T02:59:16.520Z,48.13
2018-07-16T03:00:16.541Z,47.37
2018-07-16T03:01:16.536Z,47.56
2018-07-16T03:02:16.562Z,47.66
2018-07-16T03:03:16.674Z,47.85
2018-07-16T03:04:16.591Z,47.56
2018-07-16T03:05:16.596Z,47.53
2018-07-16T03:06:16.615Z,46.87
2018-07-16T03:07:16.619Z,47.73
2018-07-16T03:08:16.737Z,49.55
2018-07-16T03:09:16.652Z,49.45
2018-07-16T03:10:16.644Z,49.74
2018-07-16T03:11:16.675Z,49.64
2018-07-16T03:12:16.689Z,50.60
2018-07-16T03:13:16.839Z,50.70
2018-07-16T03:14:16.704Z,50.70
2018-07-16T03:15:16.721Z,51.17
2018-07-16T03:16:16.733Z,51.07
2018-07-16T03:17:16.746Z,50.98
2018-07-16T03:18:16.834Z,50.12
2018-07-16T03:19:16.765Z,50.79
2018-07-16T03:20:16.782Z,52.03
2018-07-16T03:21:16.792Z,51.07
2018-07-16T03:22:16.810Z,50.89
2018-07-16T03:23:16.959Z,50.70
2018-07-16T03:24:16.815Z,51.07
2018-07-16T03:25:16.839Z,50.89
2018-07-16T03:26:16.850Z,52.13
2018-07-16T03:27:16.863Z,52.51
2018-07-16T03:28:16.973Z,52.42
2018-07-16T03:29:16.885Z,51.65
2018-07-16T03:30:16.896Z,50.98
2018-07-16T03:31:16.908Z,50.98
2018-07-16T03:32:16.922Z,50.98
2018-07-16T03:33:17.028Z,50.89
2018-07-16T03:34:16.941Z,51.15
2018-07-16T03:35:16.960Z,52.29
2018-07-16T03:36:16.962Z,52.42
2018-07-16T03:37:16.979Z,52.80
2018-07-16T03:38:17.146Z,52.80
2018-07-16T03:39:16.998Z,52.42
2018-07-16T03:40:17.015Z,53.06
2018-07-16T03:41:17.029Z,53.92
2018-07-16T03:42:17.029Z,52.29
2018-07-16T03:43:17.152Z,52.89
2018-07-16T03:44:17.066Z,52.48
2018-07-16T03:45:17.074Z,52.20
2018-07-16T03:46:17.069Z,52.01
2018-07-16T03:47:17.101Z,51.53
2018-07-16T03:48:17.266Z,51.34
2018-07-16T03:49:17.119Z,51.34
2018-07-16T03:50:17.133Z,51.34
2018-07-16T03:51:17.127Z,51.34
2018-07-16T03:52:17.154Z,51.34
2018-07-16T03:53:17.171Z,51.53
2018-07-16T03:54:17.295Z,51.43
2018-07-16T03:55:17.200Z,52.10
2018-07-16T03:56:17.205Z,52.58
2018-07-16T03:57:17.208Z,53.44
2018-07-16T03:58:17.228Z,52.67
2018-07-16T03:59:17.336Z,52.58
2018-07-16T04:00:17.248Z,52.87
2018-07-16T04:01:17.262Z,52.96
2018-07-16T04:02:17.276Z,52.48
2018-07-16T04:03:17.271Z,52.29
2018-07-16T04:04:17.448Z,52.29
2018-07-16T04:05:17.309Z,52.58
2018-07-16T04:06:17.320Z,52.77
2018-07-16T04:07:17.331Z,52.87
2018-07-16T04:08:17.343Z,53.16
2018-07-16T04:09:17.449Z,53.73
2018-07-16T04:10:17.366Z,53.73
2018-07-16T04:11:17.374Z,53.63
2018-07-16T04:12:17.391Z,54.02
2018-07-16T04:13:17.403Z,54.78
2018-07-16T04:14:17.551Z,55.64
2018-07-16T04:15:17.428Z,54.97
2018-07-16T04:16:17.436Z,55.07
2018-07-16T04:17:17.450Z,54.78
2018-07-16T04:18:17.459Z,54.39
2018-07-16T04:19:17.573Z,54.49
2018-07-16T04:20:17.483Z,54.59
2018-07-16T04:21:17.481Z,54.68
2018-07-16T04:22:17.503Z,54.39
2018-07-16T04:23:17.501Z,54.39
2018-07-16T04:24:17.673Z,54.49
2018-07-16T04:25:17.535Z,54.39
2018-07-16T04:26:17.552Z,54.49
2018-07-16T04:27:17.546Z,54.11
2018-07-16T04:28:17.576Z,54.11
2018-07-16T04:29:17.737Z,53.53
2018-07-16T04:30:17.596Z,53.73
2018-07-16T04:31:17.596Z,54.21
2018-07-16T04:32:17.607Z,53.82
2018-07-16T04:33:17.632Z,54.02
2018-07-16T04:34:17.742Z,53.63
2018-07-16T04:35:17.658Z,53.34
2018-07-16T04:36:17.671Z,53.53
2018-07-16T04:37:17.677Z,53.34
2018-07-16T04:38:17.692Z,53.44
2018-07-16T04:39:17.809Z,52.96
2018-07-16T04:40:17.716Z,52.96
2018-07-16T04:41:17.709Z,52.77
2018-07-16T04:42:17.744Z,52.67
2018-07-16T04:43:17.753Z,52.39
2018-07-16T04:44:17.765Z,53.34
2018-07-16T04:45:17.765Z,53.16
2018-07-16T04:46:17.790Z,52.96
2018-07-16T04:47:17.793Z,52.77
2018-07-16T04:48:17.814Z,52.87
2018-07-16T04:49:17.966Z,52.77
2018-07-16T04:50:17.812Z,52.61
2018-07-16T04:51:17.848Z,51.93
2018-07-16T04:52:17.846Z,52.32
2018-07-16T04:53:17.853Z,51.75
2018-07-16T04:54:17.977Z,52.13
2018-07-16T04:55:17.883Z,52.51
2018-07-16T04:56:17.915Z,52.70
2018-07-16T04:57:17.915Z,52.42
2018-07-16T04:58:17.920Z,52.03
2018-07-16T04:59:18.036Z,52.20
2018-07-16T05:00:17.934Z,52.51
2018-07-16T05:01:17.958Z,52.80
2018-07-16T05:02:17.972Z,52.51
2018-07-16T05:03:18.081Z,52.22
2018-07-16T05:04:18.079Z,52.42
2018-07-16T05:05:18.010Z,52.13
2018-07-16T05:06:18.020Z,51.75
2018-07-16T05:07:18.034Z,51.56
2018-07-16T05:08:18.041Z,52.32
2018-07-16T05:09:18.149Z,52.42
2018-07-16T05:10:18.048Z,52.32
2018-07-16T05:11:18.060Z,51.75
2018-07-16T05:12:18.073Z,51.56
2018-07-16T05:13:18.102Z,51.56
2018-07-16T05:14:18.115Z,51.56
2018-07-16T05:15:18.221Z,51.36
2018-07-16T05:16:18.140Z,51.46
2018-07-16T05:17:18.150Z,50.89
2018-07-16T05:18:18.286Z,51.17
2018-07-16T05:19:18.169Z,50.98
2018-07-16T05:20:18.333Z,51.07
2018-07-16T05:21:18.195Z,51.27
2018-07-16T05:22:18.204Z,51.46
2018-07-16T05:23:18.213Z,51.36
2018-07-16T05:24:18.246Z,51.36
2018-07-16T05:25:18.321Z,51.46
2018-07-16T05:26:18.238Z,51.17
2018-07-16T05:27:18.264Z,51.56
2018-07-16T05:28:18.276Z,51.36
2018-07-16T05:29:18.302Z,51.17
2018-07-16T05:30:18.447Z,51.36
2018-07-16T05:31:18.307Z,51.07
2018-07-16T05:32:18.430Z,50.98
2018-07-16T05:33:18.342Z,50.98
2018-07-16T05:34:18.336Z,50.70
2018-07-16T05:35:18.506Z,50.50
2018-07-16T05:36:18.369Z,50.31
2018-07-16T05:37:18.381Z,50.21
2018-07-16T05:38:18.427Z,50.21
2018-07-16T05:39:18.397Z,50.12
2018-07-16T05:40:18.512Z,50.02
2018-07-16T05:41:18.424Z,50.70
2018-07-16T05:42:18.431Z,50.89
2018-07-16T05:43:18.443Z,50.02
2018-07-16T05:44:18.462Z,50.31
2018-07-16T05:45:18.472Z,50.60
2018-07-16T05:46:18.487Z,50.67
2018-07-16T05:47:18.496Z,50.29
2018-07-16T05:48:18.509Z,50.95
2018-07-16T05:49:18.521Z,50.76
2018-07-16T05:50:18.630Z,50.76
2018-07-16T05:51:18.542Z,52.20
2018-07-16T05:52:18.556Z,52.20
2018-07-16T05:53:18.566Z,52.67
2018-07-16T05:54:18.577Z,53.25
2018-07-16T05:55:18.728Z,54.30
2018-07-16T05:56:18.598Z,54.97
2018-07-16T05:57:18.610Z,55.04
2018-07-16T05:58:18.718Z,56.28
2018-07-16T05:59:18.637Z,56.95
2018-07-16T06:00:18.734Z,56.57
2018-07-16T06:01:18.656Z,56.85
2018-07-16T06:02:18.667Z,57.71
2018-07-16T06:03:18.675Z,57.33
2018-07-16T06:04:18.692Z,57.04
2018-07-16T06:05:18.803Z,56.85
2018-07-16T06:06:18.713Z,56.28
2018-07-16T06:07:18.724Z,56.18
2018-07-16T06:08:18.739Z,55.32
2018-07-16T06:09:18.749Z,55.30
2018-07-16T06:10:18.912Z,55.40
2018-07-16T06:11:18.769Z,55.87
2018-07-16T06:12:18.784Z,56.06
2018-07-16T06:13:18.791Z,56.25
2018-07-16T06:14:18.806Z,57.02
2018-07-16T06:15:18.908Z,56.54
2018-07-16T06:16:18.823Z,56.82
2018-07-16T06:17:18.836Z,56.16
2018-07-16T06:18:18.847Z,56.73
2018-07-16T06:19:18.859Z,57.50
2018-07-16T06:20:18.966Z,58.64
2018-07-16T06:21:18.888Z,59.22
2018-07-16T06:22:18.900Z,59.41
2018-07-16T06:23:18.885Z,60.46
2018-07-16T06:24:18.917Z,60.36
2018-07-16T06:25:18.921Z,61.19
2018-07-16T06:26:18.937Z,61.22
2018-07-16T06:27:18.954Z,61.38
2018-07-16T06:28:18.955Z,61.19
2018-07-16T06:29:18.969Z,60.74
2018-07-16T06:30:19.066Z,59.69
2018-07-16T06:31:18.992Z,59.22
2018-07-16T06:32:19.010Z,59.09
2018-07-16T06:33:18.995Z,58.73
2018-07-16T06:34:19.031Z,58.51
2018-07-16T06:35:19.185Z,57.94
2018-07-16T06:36:19.029Z,56.99
2018-07-16T06:37:19.058Z,56.41
2018-07-16T06:38:19.067Z,57.28
2018-07-16T06:39:19.079Z,59.09
2018-07-16T06:40:19.342Z,60.71
2018-07-16T06:41:19.548Z,61.10
2018-07-16T06:42:19.112Z,61.29
2018-07-16T06:43:19.123Z,62.05
2018-07-16T06:44:19.132Z,61.47
2018-07-16T06:45:19.148Z,62.05
2018-07-16T06:46:19.255Z,62.52
2018-07-16T06:47:19.167Z,62.81
2018-07-16T06:48:19.176Z,62.91
2018-07-16T06:49:19.193Z,63.20
2018-07-16T06:50:19.191Z,62.15
2018-07-16T06:51:19.376Z,62.15
2018-07-16T06:52:19.292Z,62.05
2018-07-16T06:53:19.300Z,61.47
2018-07-16T06:54:19.307Z,61.47
2018-07-16T06:55:19.325Z,61.00
2018-07-16T06:56:19.468Z,61.00
2018-07-16T06:57:19.337Z,61.00
2018-07-16T06:58:19.353Z,59.66
2018-07-16T06:59:19.359Z,59.66
2018-07-16T07:00:19.375Z,59.47
2018-07-16T07:01:19.475Z,59.95
2018-07-16T07:02:19.370Z,60.04
2018-07-16T07:03:19.353Z,60.33
2018-07-16T07:04:19.360Z,60.52
2018-07-16T07:05:19.354Z,59.66
2018-07-16T07:06:19.483Z,59.85
2018-07-16T07:07:19.395Z,59.28
2018-07-16T07:08:19.406Z,59.47
2018-07-16T07:09:19.414Z,59.47
2018-07-16T07:10:19.429Z,61.19
2018-07-16T07:11:19.589Z,62.24
2018-07-16T07:12:19.443Z,62.91
2018-07-16T07:13:19.457Z,62.81
2018-07-16T07:14:19.471Z,62.91
2018-07-16T07:15:19.469Z,63.20
2018-07-16T07:16:19.590Z,63.00
2018-07-16T07:17:19.497Z,63.64
2018-07-16T07:18:19.495Z,62.71
2018-07-16T07:19:19.520Z,62.68
2018-07-16T07:20:19.515Z,62.88
2018-07-16T07:21:19.693Z,63.26
2018-07-16T07:22:19.541Z,63.16
2018-07-16T07:23:19.566Z,63.64
2018-07-16T07:24:19.575Z,62.40
2018-07-16T07:25:19.596Z,62.68
2018-07-16T07:26:19.703Z,63.54
2018-07-16T07:27:19.618Z,64.59
2018-07-16T07:28:19.613Z,65.64
2018-07-16T07:29:19.632Z,64.59
2018-07-16T07:30:19.635Z,64.50
2018-07-16T07:31:19.803Z,64.97
2018-07-16T07:32:19.657Z,66.50
2018-07-16T07:33:19.665Z,65.64
2018-07-16T07:34:19.688Z,65.45
2018-07-16T07:35:19.805Z,65.39
2018-07-16T07:36:19.801Z,64.50
2018-07-16T07:37:19.711Z,63.29
2018-07-16T07:38:19.723Z,64.05
2018-07-16T07:39:19.731Z,63.48
2018-07-16T07:40:19.740Z,64.43
2018-07-16T07:41:19.899Z,64.31
2018-07-16T07:42:19.777Z,64.69
2018-07-16T07:43:19.776Z,66.22
2018-07-16T07:44:19.781Z,66.72
2018-07-16T07:45:19.802Z,67.17
2018-07-16T07:46:19.901Z,67.01
2018-07-16T07:47:19.821Z,66.50
2018-07-16T07:48:19.827Z,68.60
2018-07-16T07:49:19.836Z,67.68
2018-07-16T07:50:19.850Z,66.35
2018-07-16T07:51:19.957Z,66.72
2018-07-16T07:52:19.866Z,66.12
2018-07-16T07:53:19.885Z,66.12
2018-07-16T07:54:20.027Z,66.63
2018-07-16T07:55:20.276Z,67.40
2018-07-16T07:56:20.010Z,67.49
2018-07-16T07:57:19.928Z,67.68
2018-07-16T07:58:19.928Z,67.97
2018-07-16T07:59:19.942Z,67.87
2018-07-16T08:00:19.952Z,67.30
2018-07-16T08:01:20.064Z,67.21
2018-07-16T08:02:19.960Z,68.06
2018-07-16T08:03:20.044Z,67.58
2018-07-16T08:04:19.978Z,67.97
2018-07-16T08:05:20.007Z,67.49
2018-07-16T08:06:20.161Z,67.87
2018-07-16T08:07:20.024Z,67.21
2018-07-16T08:08:20.036Z,66.92
2018-07-16T08:09:20.048Z,66.92
2018-07-16T08:10:20.059Z,67.11
2018-07-16T08:11:20.063Z,66.25
2018-07-16T08:12:20.170Z,66.35
2018-07-16T08:13:20.084Z,65.87
2018-07-16T08:14:20.099Z,66.15
2018-07-16T08:15:20.111Z,66.44
2018-07-16T08:16:20.119Z,66.06
2018-07-16T08:17:20.240Z,65.67
2018-07-16T08:18:20.129Z,66.06
2018-07-16T08:19:20.139Z,65.48
2018-07-16T08:20:20.157Z,65.58
2018-07-16T08:21:20.162Z,65.39
2018-07-16T08:22:20.318Z,65.48
2018-07-16T08:23:20.181Z,65.33
2018-07-16T08:24:20.201Z,65.67
2018-07-16T08:25:20.215Z,65.77
2018-07-16T08:26:20.221Z,66.06
2018-07-16T08:27:20.333Z,66.63
2018-07-16T08:28:20.250Z,66.63
2018-07-16T08:29:20.253Z,66.82
2018-07-16T08:30:20.266Z,66.82
2018-07-16T08:31:20.276Z,66.44
2018-07-16T08:32:20.373Z,66.82
2018-07-16T08:33:20.298Z,67.01
2018-07-16T08:34:20.310Z,67.21
2018-07-16T08:35:20.322Z,67.97
2018-07-16T08:36:20.336Z,67.87
2018-07-16T08:37:20.438Z,68.26
2018-07-16T08:38:20.352Z,69.11
2018-07-16T08:39:20.357Z,69.31
2018-07-16T08:40:20.372Z,69.87
2018-07-16T08:41:20.386Z,70.36
2018-07-16T08:42:20.491Z,70.73
2018-07-16T08:43:20.389Z,71.21
2018-07-16T08:44:20.410Z,72.36
2018-07-16T08:45:20.424Z,71.98
2018-07-16T08:46:20.467Z,72.07
2018-07-16T08:47:20.577Z,72.26
2018-07-16T08:48:20.454Z,71.78
2018-07-16T08:49:20.462Z,71.88
2018-07-16T08:50:20.475Z,71.88
2018-07-16T08:51:20.485Z,71.69
2018-07-16T08:52:20.594Z,72.45
2018-07-16T08:53:20.512Z,72.36
2018-07-16T08:54:20.520Z,72.26
2018-07-16T08:55:20.532Z,72.26
2018-07-16T08:56:20.533Z,72.45
2018-07-16T08:57:20.651Z,72.55
2018-07-16T08:58:20.557Z,72.64
2018-07-16T08:59:20.577Z,73.12
2018-07-16T09:00:20.579Z,72.93
2018-07-16T09:01:20.589Z,73.03
2018-07-16T09:02:20.706Z,72.74
2018-07-16T09:03:20.597Z,72.26
2018-07-16T09:04:20.624Z,72.45
2018-07-16T09:05:20.629Z,72.55
2018-07-16T09:06:20.645Z,72.17
2018-07-16T09:07:20.805Z,71.72
2018-07-16T09:08:20.658Z,73.12
2018-07-16T09:09:20.660Z,74.08
2018-07-16T09:10:20.678Z,74.17
2018-07-16T09:11:20.794Z,73.98
2018-07-16T09:12:20.848Z,74.08
2018-07-16T09:13:20.813Z,73.54
2018-07-16T09:14:20.729Z,73.50
2018-07-16T09:15:20.737Z,72.55
2018-07-16T09:16:20.747Z,72.74
2018-07-16T09:17:20.859Z,72.45
2018-07-16T09:18:20.764Z,72.30
2018-07-16T09:19:20.872Z,71.88
2018-07-16T09:20:20.786Z,71.88
2018-07-16T09:21:20.798Z,71.78
2018-07-16T09:22:20.905Z,71.34
2018-07-16T09:23:20.820Z,71.53
2018-07-16T09:24:20.831Z,71.06
2018-07-16T09:25:20.903Z,70.83
2018-07-16T09:26:20.852Z,70.83
2018-07-16T09:27:20.964Z,70.92
2018-07-16T09:28:20.879Z,70.73
2018-07-16T09:29:20.881Z,72.64
2018-07-16T09:30:20.949Z,72.55
2018-07-16T09:31:20.904Z,72.36
2018-07-16T09:32:21.018Z,71.59
2018-07-16T09:33:20.931Z,71.59
2018-07-16T09:34:20.924Z,71.88
2018-07-16T09:35:20.948Z,71.50
2018-07-16T09:36:20.959Z,71.98
2018-07-16T09:37:20.968Z,71.88
2018-07-16T09:38:20.965Z,71.69
2018-07-16T09:39:20.988Z,71.78
2018-07-16T09:40:21.000Z,71.59
2018-07-16T09:41:20.998Z,71.98
2018-07-16T09:42:21.168Z,71.98
2018-07-16T09:43:21.031Z,71.88
2018-07-16T09:44:21.031Z,71.69
2018-07-16T09:45:21.050Z,71.02
2018-07-16T09:46:21.062Z,70.54
2018-07-16T09:47:21.055Z,70.36
2018-07-16T09:48:21.233Z,70.54
2018-07-16T09:49:21.091Z,70.07
2018-07-16T09:50:21.103Z,70.54
2018-07-16T09:51:21.111Z,70.54
2018-07-16T09:52:21.122Z,71.12
2018-07-16T09:53:21.284Z,71.69
2018-07-16T09:54:21.144Z,72.64
2018-07-16T09:55:21.143Z,72.36
2018-07-16T09:56:21.197Z,72.74
2018-07-16T09:57:21.175Z,72.36
2018-07-16T09:58:21.285Z,72.74
2018-07-16T09:59:21.202Z,72.45
2018-07-16T10:00:21.209Z,72.17
2018-07-16T10:01:21.219Z,71.12
2018-07-16T10:02:21.229Z,71.21
2018-07-16T10:03:21.340Z,71.02
2018-07-16T10:04:21.252Z,71.69
2018-07-16T10:05:21.259Z,71.21
2018-07-16T10:06:21.273Z,70.64
2018-07-16T10:07:21.278Z,70.16
2018-07-16T10:08:21.473Z,70.64
2018-07-16T10:09:21.305Z,71.02
2018-07-16T10:10:21.304Z,71.02
2018-07-16T10:11:21.322Z,71.12
2018-07-16T10:12:21.332Z,71.31
2018-07-16T10:13:21.445Z,72.36
2018-07-16T10:14:21.359Z,72.07
2018-07-16T10:15:21.368Z,72.07
2018-07-16T10:16:21.358Z,72.17
2018-07-16T10:17:21.387Z,71.88
2018-07-16T10:18:21.500Z,71.59
2018-07-16T10:19:21.475Z,71.12
2018-07-16T10:20:21.587Z,71.21
2018-07-16T10:21:21.430Z,72.17
2018-07-16T10:22:21.439Z,71.12
2018-07-16T10:23:21.552Z,70.83
2018-07-16T10:24:21.460Z,71.41
2018-07-16T10:25:21.469Z,71.98
2018-07-16T10:26:21.483Z,71.88
2018-07-16T10:27:21.493Z,73.03
2018-07-16T10:28:21.605Z,74.17
2018-07-16T10:29:21.512Z,74.11
2018-07-16T10:30:21.523Z,73.54
2018-07-16T10:31:21.522Z,73.54
2018-07-16T10:32:21.526Z,73.54
2018-07-16T10:33:21.661Z,72.78
2018-07-16T10:34:21.570Z,72.58
2018-07-16T10:35:21.581Z,72.39
2018-07-16T10:36:21.591Z,71.72
2018-07-16T10:37:21.603Z,71.34
2018-07-16T10:38:21.763Z,70.42
2018-07-16T10:39:21.636Z,70.33
2018-07-16T10:40:21.629Z,70.33
2018-07-16T10:41:21.645Z,70.23
2018-07-16T10:42:21.662Z,69.37
2018-07-16T10:43:21.768Z,69.56
2018-07-16T10:44:21.663Z,68.80
2018-07-16T10:45:21.688Z,68.16
2018-07-16T10:46:21.702Z,67.88
2018-07-16T10:47:21.710Z,67.11
2018-07-16T10:48:21.823Z,66.44
2018-07-16T10:49:21.741Z,65.77
2018-07-16T10:50:21.745Z,65.20
2018-07-16T10:51:21.756Z,63.76
2018-07-16T10:52:21.766Z,63.19
2018-07-16T10:53:21.928Z,62.65
2018-07-16T10:54:21.798Z,61.60
2018-07-16T10:55:21.870Z,61.41
2018-07-16T10:56:21.834Z,59.97
2018-07-16T10:57:21.830Z,59.20
2018-07-16T10:58:21.979Z,59.05
2018-07-16T10:59:21.854Z,59.14
2018-07-16T11:00:21.868Z,58.28
2018-07-16T11:01:21.879Z,57.32
2018-07-16T11:02:21.873Z,56.87
2018-07-16T11:03:22.046Z,55.53
2018-07-16T11:04:21.919Z,54.57
2018-07-16T11:05:22.005Z,54.28
2018-07-16T11:06:21.945Z,54.12
2018-07-16T11:07:21.947Z,52.97
2018-07-16T11:08:22.067Z,52.30
2018-07-16T11:09:21.979Z,51.73
2018-07-16T11:10:21.993Z,50.67
2018-07-16T11:11:22.004Z,49.26
2018-07-16T11:12:22.024Z,49.26
2018-07-16T11:13:22.032Z,48.69
2018-07-16T11:14:22.148Z,47.94
2018-07-16T11:15:22.062Z,47.17
2018-07-16T11:16:22.081Z,46.12
2018-07-16T11:17:22.084Z,45.83
2018-07-16T11:18:22.097Z,44.80
2018-07-16T11:19:22.262Z,44.70
2018-07-16T11:20:22.132Z,43.74
2018-07-16T11:21:22.148Z,43.84
2018-07-16T11:22:22.158Z,43.57
2018-07-16T11:23:22.177Z,43.19
2018-07-16T11:24:22.322Z,42.61
2018-07-16T11:25:22.198Z,41.94
2018-07-16T11:26:22.223Z,41.56
2018-07-16T11:27:22.229Z,41.20
2018-07-16T11:28:22.239Z,40.52
2018-07-16T11:29:22.414Z,40.81
2018-07-16T11:30:22.278Z,40.91
2018-07-16T11:31:22.286Z,40.45
2018-07-16T11:32:22.299Z,39.29
2018-07-16T11:33:22.323Z,38.43
2018-07-16T11:34:22.438Z,38.43
2018-07-16T11:35:22.408Z,38.14
2018-07-16T11:36:22.363Z,38.43
2018-07-16T11:37:22.381Z,38.04
2018-07-16T11:38:22.401Z,38.74
2018-07-16T11:39:22.520Z,38.26
2018-07-16T11:40:22.430Z,38.16
2018-07-16T11:41:22.449Z,37.39
2018-07-16T11:42:22.458Z,36.93
2018-07-16T11:43:22.483Z,36.74
2018-07-16T11:44:22.595Z,36.16
2018-07-16T11:45:22.507Z,35.87
2018-07-16T11:46:22.526Z,35.31
2018-07-16T11:47:22.546Z,35.50
2018-07-16T11:48:22.558Z,34.54
2018-07-16T11:49:22.676Z,34.54
2018-07-16T11:50:22.591Z,35.22
2018-07-16T11:51:22.607Z,34.46
2018-07-16T11:52:22.731Z,33.89
2018-07-16T11:53:22.645Z,33.50
2018-07-16T11:54:22.809Z,33.13
2018-07-16T11:55:22.674Z,32.56
2018-07-16T11:56:22.693Z,32.36
2018-07-16T11:57:22.709Z,32.07
2018-07-16T11:58:22.727Z,31.21
2018-07-16T11:59:22.929Z,31.21
2018-07-16T12:00:22.768Z,31.22
2018-07-16T12:01:22.783Z,31.70
2018-07-16T12:02:22.803Z,30.55
2018-07-16T12:03:22.861Z,30.55
2018-07-16T12:04:22.936Z,30.55
2018-07-16T12:05:22.851Z,31.60
2018-07-16T12:06:22.871Z,31.60
2018-07-16T12:07:22.888Z,30.64
2018-07-16T12:08:22.905Z,30.45
2018-07-16T12:09:23.031Z,30.07
2018-07-16T12:10:22.946Z,29.50
2018-07-16T12:11:22.964Z,28.63
2018-07-16T12:12:23.028Z,28.92
2018-07-16T12:13:23.002Z,29.41
2018-07-16T12:14:23.115Z,28.64
2018-07-16T12:15:23.035Z,27.87
2018-07-16T12:16:23.052Z,27.11
2018-07-16T12:17:23.075Z,26.81
2018-07-16T12:18:23.086Z,25.75
2018-07-16T12:19:23.261Z,26.04
2018-07-16T12:20:23.129Z,26.72
2018-07-16T12:21:23.144Z,28.45
2018-07-16T12:22:23.164Z,27.01
2018-07-16T12:23:23.189Z,27.11
2018-07-16T12:24:23.306Z,26.06
2018-07-16T12:25:23.220Z,25.38
2018-07-16T12:26:23.240Z,25.57
2018-07-16T12:27:23.255Z,26.15
2018-07-16T12:28:23.281Z,26.54
2018-07-16T12:29:23.419Z,25.96
2018-07-16T12:30:23.323Z,26.15
2018-07-16T12:31:23.333Z,25.59
2018-07-16T12:32:23.355Z,25.68
2018-07-16T12:33:23.376Z,25.29
2018-07-16T12:34:23.503Z,25.39
2018-07-16T12:35:23.414Z,25.78
2018-07-16T12:36:23.432Z,26.17
2018-07-16T12:37:23.450Z,25.97
2018-07-16T12:38:23.489Z,25.29
2018-07-16T12:39:23.602Z,25.10
2018-07-16T12:40:23.513Z,25.20
2018-07-16T12:41:23.568Z,25.02
2018-07-16T12:42:23.551Z,24.44
2018-07-16T12:43:23.581Z,23.76
2018-07-16T12:44:23.739Z,24.26
2018-07-16T12:45:23.613Z,23.68
2018-07-16T12:46:23.633Z,23.58
2018-07-16T12:47:23.652Z,23.68
2018-07-16T12:48:23.675Z,23.10
2018-07-16T12:49:23.842Z,22.24
2018-07-16T12:50:23.722Z,22.53
2018-07-16T12:51:23.739Z,22.53
2018-07-16T12:52:23.757Z,22.44
2018-07-16T12:53:23.775Z,21.67
2018-07-16T12:54:23.950Z,21.77
2018-07-16T12:55:23.872Z,21.30